sensor_id;sensor_type;location;lat;lon;timestamp;temperature;humidity
20057;DHT22;10189;49.546;7.906;2024-01-30T00:02:14;1.40;99.90
20057;DHT22;10189;49.546;7.906;2024-01-30T00:04:40;1.40;99.90
20057;DHT22;10189;49.546;7.906;2024-01-30T00:07:06;1.40;99.90
20057;DHT22;10189;49.546;7.906;2024-01-30T00:09:32;1.30;99.90
20057;DHT22;10189;49.546;7.906;2024-01-30T00:11:58;1.40;99.90
20057;DHT22;10189;49.546;7.906;2024-01-30T00:14:24;1.40;99.90
20057;DHT22;10189;49.546;7.906;2024-01-30T00:16:51;1.50;99.90
20057;DHT22;10189;49.546;7.906;2024-01-30T00:19:17;1.40;99.90
20057;DHT22;10189;49.546;7.906;2024-01-30T00:21:43;1.30;99.90
20057;DHT22;10189;49.546;7.906;2024-01-30T00:24:09;1.20;99.90
20057;DHT22;10189;49.546;7.906;2024-01-30T00:26:35;1.20;99.90
20057;DHT22;10189;49.546;7.906;2024-01-30T00:29:01;1.10;99.90
20057;DHT22;10189;49.546;7.906;2024-01-30T00:31:27;1.00;99.90
20057;DHT22;10189;49.546;7.906;2024-01-30T00:33:53;1.00;99.90
20057;DHT22;10189;49.546;7.906;2024-01-30T00:36:19;1.00;99.90
20057;DHT22;10189;49.546;7.906;2024-01-30T00:38:45;1.00;99.90
20057;DHT22;10189;49.546;7.906;2024-01-30T00:41:11;1.00;99.90
20057;DHT22;10189;49.546;7.906;2024-01-30T00:43:37;1.10;99.90
20057;DHT22;10189;49.546;7.906;2024-01-30T00:46:03;1.20;99.90
20057;DHT22;10189;49.546;7.906;2024-01-30T00:48:29;1.30;99.90
20057;DHT22;10189;49.546;7.906;2024-01-30T00:50:55;1.30;99.90
20057;DHT22;10189;49.546;7.906;2024-01-30T00:53:21;1.20;99.90
20057;DHT22;10189;49.546;7.906;2024-01-30T00:55:47;1.20;99.90
20057;DHT22;10189;49.546;7.906;2024-01-30T00:58:13;1.20;99.90
20057;DHT22;10189;49.546;7.906;2024-01-30T01:00:39;1.20;99.90
20057;DHT22;10189;49.546;7.906;2024-01-30T01:03:05;1.20;99.90
20057;DHT22;10189;49.546;7.906;2024-01-30T01:05:31;1.20;99.90
20057;DHT22;10189;49.546;7.906;2024-01-30T01:07:57;1.20;99.90
20057;DHT22;10189;49.546;7.906;2024-01-30T01:10:23;1.20;99.90
20057;DHT22;10189;49.546;7.906;2024-01-30T01:12:49;1.10;99.90
20057;DHT22;10189;49.546;7.906;2024-01-30T01:15:15;1.20;99.90
20057;DHT22;10189;49.546;7.906;2024-01-30T01:17:41;1.20;99.90
20057;DHT22;10189;49.546;7.906;2024-01-30T01:20:08;1.20;99.90
20057;DHT22;10189;49.546;7.906;2024-01-30T01:22:34;1.20;99.90
20057;DHT22;10189;49.546;7.906;2024-01-30T01:25:01;1.10;99.90
20057;DHT22;10189;49.546;7.906;2024-01-30T01:27:27;1.10;99.90
20057;DHT22;10189;49.546;7.906;2024-01-30T01:29:53;1.10;99.90
20057;DHT22;10189;49.546;7.906;2024-01-30T01:32:19;1.10;99.90
20057;DHT22;10189;49.546;7.906;2024-01-30T01:34:45;1.10;99.90
20057;DHT22;10189;49.546;7.906;2024-01-30T01:37:11;1.10;99.90
20057;DHT22;10189;49.546;7.906;2024-01-30T01:39:37;1.20;99.90
20057;DHT22;10189;49.546;7.906;2024-01-30T01:42:04;1.20;99.90
20057;DHT22;10189;49.546;7.906;2024-01-30T01:44:30;1.20;99.90
20057;DHT22;10189;49.546;7.906;2024-01-30T01:46:57;1.10;99.90
20057;DHT22;10189;49.546;7.906;2024-01-30T01:49:25;1.10;99.90
20057;DHT22;10189;49.546;7.906;2024-01-30T01:51:54;1.00;99.90
20057;DHT22;10189;49.546;7.906;2024-01-30T01:54:22;1.00;99.90
20057;DHT22;10189;49.546;7.906;2024-01-30T01:56:51;0.90;99.90
20057;DHT22;10189;49.546;7.906;2024-01-30T01:59:20;0.90;99.90
20057;DHT22;10189;49.546;7.906;2024-01-30T02:01:47;0.90;99.90
20057;DHT22;10189;49.546;7.906;2024-01-30T02:04:16;0.80;99.90
20057;DHT22;10189;49.546;7.906;2024-01-30T02:06:43;0.80;99.90
20057;DHT22;10189;49.546;7.906;2024-01-30T02:09:09;0.80;99.90
20057;DHT22;10189;49.546;7.906;2024-01-30T02:11:35;0.80;99.90
20057;DHT22;10189;49.546;7.906;2024-01-30T02:14:03;0.80;99.90
20057;DHT22;10189;49.546;7.906;2024-01-30T02:16:30;0.70;99.90
20057;DHT22;10189;49.546;7.906;2024-01-30T02:18:56;0.80;99.90
20057;DHT22;10189;49.546;7.906;2024-01-30T02:21:22;0.80;99.90
20057;DHT22;10189;49.546;7.906;2024-01-30T02:23:48;0.80;99.90
20057;DHT22;10189;49.546;7.906;2024-01-30T02:26:16;0.70;99.90
20057;DHT22;10189;49.546;7.906;2024-01-30T02:28:42;0.70;99.90
20057;DHT22;10189;49.546;7.906;2024-01-30T02:31:08;0.80;99.90
20057;DHT22;10189;49.546;7.906;2024-01-30T02:33:33;0.90;99.90
20057;DHT22;10189;49.546;7.906;2024-01-30T02:36:00;1.00;99.90
20057;DHT22;10189;49.546;7.906;2024-01-30T02:38:26;1.00;99.90
20057;DHT22;10189;49.546;7.906;2024-01-30T02:40:55;1.10;99.90
20057;DHT22;10189;49.546;7.906;2024-01-30T02:43:22;1.10;99.90
20057;DHT22;10189;49.546;7.906;2024-01-30T02:45:48;1.10;99.90
20057;DHT22;10189;49.546;7.906;2024-01-30T02:48:13;1.10;99.90
20057;DHT22;10189;49.546;7.906;2024-01-30T02:50:39;1.00;99.90
20057;DHT22;10189;49.546;7.906;2024-01-30T02:53:05;1.00;99.90
20057;DHT22;10189;49.546;7.906;2024-01-30T02:55:31;1.00;99.90
20057;DHT22;10189;49.546;7.906;2024-01-30T02:57:57;1.00;99.90
20057;DHT22;10189;49.546;7.906;2024-01-30T03:00:23;1.00;99.90
20057;DHT22;10189;49.546;7.906;2024-01-30T03:02:49;1.00;99.90
20057;DHT22;10189;49.546;7.906;2024-01-30T03:05:15;1.00;99.90
20057;DHT22;10189;49.546;7.906;2024-01-30T03:07:41;1.10;99.90
20057;DHT22;10189;49.546;7.906;2024-01-30T03:10:07;1.10;99.90
20057;DHT22;10189;49.546;7.906;2024-01-30T03:12:33;1.20;99.90
20057;DHT22;10189;49.546;7.906;2024-01-30T03:14:59;1.20;99.90
20057;DHT22;10189;49.546;7.906;2024-01-30T03:17:25;1.20;99.90
20057;DHT22;10189;49.546;7.906;2024-01-30T03:19:51;1.20;99.90
20057;DHT22;10189;49.546;7.906;2024-01-30T03:22:17;1.10;99.90
20057;DHT22;10189;49.546;7.906;2024-01-30T03:24:43;1.10;99.90
20057;DHT22;10189;49.546;7.906;2024-01-30T03:27:09;1.10;99.90
20057;DHT22;10189;49.546;7.906;2024-01-30T03:29:35;1.10;99.90
20057;DHT22;10189;49.546;7.906;2024-01-30T03:32:01;1.20;99.90
20057;DHT22;10189;49.546;7.906;2024-01-30T03:34:27;1.20;99.90
20057;DHT22;10189;49.546;7.906;2024-01-30T03:36:53;1.20;99.90
20057;DHT22;10189;49.546;7.906;2024-01-30T03:39:19;1.20;99.90
20057;DHT22;10189;49.546;7.906;2024-01-30T03:41:45;1.10;99.90
20057;DHT22;10189;49.546;7.906;2024-01-30T03:44:11;1.10;99.90
20057;DHT22;10189;49.546;7.906;2024-01-30T03:46:37;1.10;99.90
20057;DHT22;10189;49.546;7.906;2024-01-30T03:49:03;1.10;99.90
20057;DHT22;10189;49.546;7.906;2024-01-30T03:51:29;1.10;99.90
20057;DHT22;10189;49.546;7.906;2024-01-30T03:53:55;1.00;99.90
20057;DHT22;10189;49.546;7.906;2024-01-30T03:56:21;1.00;99.90
20057;DHT22;10189;49.546;7.906;2024-01-30T03:58:47;1.00;99.90
20057;DHT22;10189;49.546;7.906;2024-01-30T04:01:14;1.00;99.90
20057;DHT22;10189;49.546;7.906;2024-01-30T04:03:40;1.00;99.90
20057;DHT22;10189;49.546;7.906;2024-01-30T04:06:08;0.90;99.90
20057;DHT22;10189;49.546;7.906;2024-01-30T04:08:34;0.90;99.90
20057;DHT22;10189;49.546;7.906;2024-01-30T04:11:06;0.80;99.90
20057;DHT22;10189;49.546;7.906;2024-01-30T04:13:33;0.80;99.90
20057;DHT22;10189;49.546;7.906;2024-01-30T04:16:00;0.80;99.90
20057;DHT22;10189;49.546;7.906;2024-01-30T04:18:29;0.90;99.90
20057;DHT22;10189;49.546;7.906;2024-01-30T04:20:55;0.90;99.90
20057;DHT22;10189;49.546;7.906;2024-01-30T04:23:21;1.00;99.90
20057;DHT22;10189;49.546;7.906;2024-01-30T04:25:47;1.10;99.90
20057;DHT22;10189;49.546;7.906;2024-01-30T04:28:13;1.20;99.90
20057;DHT22;10189;49.546;7.906;2024-01-30T04:30:39;1.20;99.90
20057;DHT22;10189;49.546;7.906;2024-01-30T04:33:05;1.20;99.90
20057;DHT22;10189;49.546;7.906;2024-01-30T04:35:31;1.10;99.90
20057;DHT22;10189;49.546;7.906;2024-01-30T04:37:57;1.10;99.90
20057;DHT22;10189;49.546;7.906;2024-01-30T04:40:23;1.00;99.90
20057;DHT22;10189;49.546;7.906;2024-01-30T04:42:49;1.00;99.90
20057;DHT22;10189;49.546;7.906;2024-01-30T04:45:15;0.90;99.90
20057;DHT22;10189;49.546;7.906;2024-01-30T04:47:41;0.90;99.90
20057;DHT22;10189;49.546;7.906;2024-01-30T04:50:07;0.80;99.90
20057;DHT22;10189;49.546;7.906;2024-01-30T04:52:34;0.80;99.90
20057;DHT22;10189;49.546;7.906;2024-01-30T04:55:00;0.80;99.90
20057;DHT22;10189;49.546;7.906;2024-01-30T04:57:26;0.80;99.90
20057;DHT22;10189;49.546;7.906;2024-01-30T04:59:53;0.90;99.90
20057;DHT22;10189;49.546;7.906;2024-01-30T05:02:19;0.90;99.90
20057;DHT22;10189;49.546;7.906;2024-01-30T05:04:45;0.90;99.90
20057;DHT22;10189;49.546;7.906;2024-01-30T05:07:11;0.90;99.90
20057;DHT22;10189;49.546;7.906;2024-01-30T05:09:36;0.90;99.90
20057;DHT22;10189;49.546;7.906;2024-01-30T05:12:02;0.90;99.90
20057;DHT22;10189;49.546;7.906;2024-01-30T05:14:28;0.90;99.90
20057;DHT22;10189;49.546;7.906;2024-01-30T05:16:54;0.90;99.90
20057;DHT22;10189;49.546;7.906;2024-01-30T05:19:20;1.00;99.90
20057;DHT22;10189;49.546;7.906;2024-01-30T05:21:49;1.10;99.90
20057;DHT22;10189;49.546;7.906;2024-01-30T05:24:15;1.20;99.90
20057;DHT22;10189;49.546;7.906;2024-01-30T05:26:41;1.20;99.90
20057;DHT22;10189;49.546;7.906;2024-01-30T05:29:07;1.10;99.90
20057;DHT22;10189;49.546;7.906;2024-01-30T05:31:34;1.20;99.90
20057;DHT22;10189;49.546;7.906;2024-01-30T05:34:00;1.20;99.90
20057;DHT22;10189;49.546;7.906;2024-01-30T05:36:26;1.20;99.90
20057;DHT22;10189;49.546;7.906;2024-01-30T05:38:52;1.30;99.90
20057;DHT22;10189;49.546;7.906;2024-01-30T05:41:19;1.20;99.90
20057;DHT22;10189;49.546;7.906;2024-01-30T05:43:46;1.20;99.90
20057;DHT22;10189;49.546;7.906;2024-01-30T05:46:12;1.20;99.90
20057;DHT22;10189;49.546;7.906;2024-01-30T05:48:38;1.20;99.90
20057;DHT22;10189;49.546;7.906;2024-01-30T05:51:04;1.30;99.90
20057;DHT22;10189;49.546;7.906;2024-01-30T05:53:30;1.30;99.90
20057;DHT22;10189;49.546;7.906;2024-01-30T05:55:56;1.40;99.90
20057;DHT22;10189;49.546;7.906;2024-01-30T05:58:22;1.40;99.90
20057;DHT22;10189;49.546;7.906;2024-01-30T06:00:48;1.40;99.90
20057;DHT22;10189;49.546;7.906;2024-01-30T06:03:14;1.40;99.90
20057;DHT22;10189;49.546;7.906;2024-01-30T06:05:39;1.40;99.90
20057;DHT22;10189;49.546;7.906;2024-01-30T06:08:06;1.50;99.90
20057;DHT22;10189;49.546;7.906;2024-01-30T06:10:31;1.60;99.90
20057;DHT22;10189;49.546;7.906;2024-01-30T06:12:57;1.60;99.90
20057;DHT22;10189;49.546;7.906;2024-01-30T06:15:23;1.60;99.90
20057;DHT22;10189;49.546;7.906;2024-01-30T06:17:49;1.60;99.90
20057;DHT22;10189;49.546;7.906;2024-01-30T06:20:15;1.50;99.90
20057;DHT22;10189;49.546;7.906;2024-01-30T06:22:41;1.50;99.90
20057;DHT22;10189;49.546;7.906;2024-01-30T06:25:07;1.40;99.90
20057;DHT22;10189;49.546;7.906;2024-01-30T06:27:33;1.40;99.90
20057;DHT22;10189;49.546;7.906;2024-01-30T06:29:59;1.50;99.90
20057;DHT22;10189;49.546;7.906;2024-01-30T06:32:25;1.50;99.90
20057;DHT22;10189;49.546;7.906;2024-01-30T06:34:51;1.60;99.90
20057;DHT22;10189;49.546;7.906;2024-01-30T06:37:17;1.50;99.90
20057;DHT22;10189;49.546;7.906;2024-01-30T06:39:42;1.60;99.90
20057;DHT22;10189;49.546;7.906;2024-01-30T06:42:09;1.60;99.90
20057;DHT22;10189;49.546;7.906;2024-01-30T06:44:35;1.70;99.90
20057;DHT22;10189;49.546;7.906;2024-01-30T06:47:01;1.70;99.90
20057;DHT22;10189;49.546;7.906;2024-01-30T06:49:27;1.70;99.90
20057;DHT22;10189;49.546;7.906;2024-01-30T06:51:53;1.80;99.90
20057;DHT22;10189;49.546;7.906;2024-01-30T06:54:18;1.80;99.90
20057;DHT22;10189;49.546;7.906;2024-01-30T06:56:44;1.90;99.90
20057;DHT22;10189;49.546;7.906;2024-01-30T06:59:10;1.90;99.90
20057;DHT22;10189;49.546;7.906;2024-01-30T07:01:36;1.90;99.90
20057;DHT22;10189;49.546;7.906;2024-01-30T07:04:02;2.00;99.90
20057;DHT22;10189;49.546;7.906;2024-01-30T07:06:28;2.00;99.90
20057;DHT22;10189;49.546;7.906;2024-01-30T07:08:54;2.10;99.90
20057;DHT22;10189;49.546;7.906;2024-01-30T07:11:21;2.10;99.90
20057;DHT22;10189;49.546;7.906;2024-01-30T07:13:48;2.20;99.90
20057;DHT22;10189;49.546;7.906;2024-01-30T07:16:15;2.30;99.90
20057;DHT22;10189;49.546;7.906;2024-01-30T07:18:41;2.30;99.90
20057;DHT22;10189;49.546;7.906;2024-01-30T07:21:07;2.40;99.90
20057;DHT22;10189;49.546;7.906;2024-01-30T07:23:33;2.40;99.90
20057;DHT22;10189;49.546;7.906;2024-01-30T07:26:01;2.40;99.90
20057;DHT22;10189;49.546;7.906;2024-01-30T07:28:27;2.40;99.90
20057;DHT22;10189;49.546;7.906;2024-01-30T07:30:53;2.40;99.90
20057;DHT22;10189;49.546;7.906;2024-01-30T07:33:19;2.50;99.90
20057;DHT22;10189;49.546;7.906;2024-01-30T07:35:45;2.50;99.90
20057;DHT22;10189;49.546;7.906;2024-01-30T07:38:14;2.60;99.90
20057;DHT22;10189;49.546;7.906;2024-01-30T07:40:40;2.60;99.90
20057;DHT22;10189;49.546;7.906;2024-01-30T07:43:06;2.70;99.90
20057;DHT22;10189;49.546;7.906;2024-01-30T07:45:32;2.90;99.90
20057;DHT22;10189;49.546;7.906;2024-01-30T07:47:59;2.90;99.90
20057;DHT22;10189;49.546;7.906;2024-01-30T07:50:25;3.00;99.90
20057;DHT22;10189;49.546;7.906;2024-01-30T07:52:52;3.10;99.90
20057;DHT22;10189;49.546;7.906;2024-01-30T07:55:20;3.20;99.90
20057;DHT22;10189;49.546;7.906;2024-01-30T07:57:52;3.20;99.90
20057;DHT22;10189;49.546;7.906;2024-01-30T08:00:19;3.30;99.90
20057;DHT22;10189;49.546;7.906;2024-01-30T08:02:45;3.40;99.90
20057;DHT22;10189;49.546;7.906;2024-01-30T08:05:11;3.40;99.90
20057;DHT22;10189;49.546;7.906;2024-01-30T08:07:37;3.50;99.90
20057;DHT22;10189;49.546;7.906;2024-01-30T08:10:03;3.50;99.90
20057;DHT22;10189;49.546;7.906;2024-01-30T08:12:29;3.60;99.90
20057;DHT22;10189;49.546;7.906;2024-01-30T08:14:55;3.70;99.90
20057;DHT22;10189;49.546;7.906;2024-01-30T08:17:21;3.80;99.90
20057;DHT22;10189;49.546;7.906;2024-01-30T08:19:47;3.90;99.90
20057;DHT22;10189;49.546;7.906;2024-01-30T08:22:13;4.00;99.90
20057;DHT22;10189;49.546;7.906;2024-01-30T08:24:40;4.10;99.90
20057;DHT22;10189;49.546;7.906;2024-01-30T08:27:07;4.20;99.90
20057;DHT22;10189;49.546;7.906;2024-01-30T08:29:35;4.20;99.90
20057;DHT22;10189;49.546;7.906;2024-01-30T08:32:02;4.30;99.90
20057;DHT22;10189;49.546;7.906;2024-01-30T08:34:29;4.40;99.90
20057;DHT22;10189;49.546;7.906;2024-01-30T08:36:55;4.50;99.90
20057;DHT22;10189;49.546;7.906;2024-01-30T08:39:21;4.50;99.90
20057;DHT22;10189;49.546;7.906;2024-01-30T08:41:46;4.60;99.90
20057;DHT22;10189;49.546;7.906;2024-01-30T08:44:12;4.60;99.90
20057;DHT22;10189;49.546;7.906;2024-01-30T08:46:38;4.70;99.90
20057;DHT22;10189;49.546;7.906;2024-01-30T08:49:04;4.80;99.90
20057;DHT22;10189;49.546;7.906;2024-01-30T08:51:30;4.80;99.90
20057;DHT22;10189;49.546;7.906;2024-01-30T08:53:56;4.90;99.90
20057;DHT22;10189;49.546;7.906;2024-01-30T08:56:22;5.10;99.90
20057;DHT22;10189;49.546;7.906;2024-01-30T08:58:49;5.20;99.90
20057;DHT22;10189;49.546;7.906;2024-01-30T09:01:14;5.30;99.90
20057;DHT22;10189;49.546;7.906;2024-01-30T09:03:41;5.50;99.90
20057;DHT22;10189;49.546;7.906;2024-01-30T09:06:09;5.60;99.90
20057;DHT22;10189;49.546;7.906;2024-01-30T09:08:36;5.80;99.90
20057;DHT22;10189;49.546;7.906;2024-01-30T09:11:09;5.90;99.90
20057;DHT22;10189;49.546;7.906;2024-01-30T09:13:36;6.10;99.90
20057;DHT22;10189;49.546;7.906;2024-01-30T09:16:02;6.20;99.50
20057;DHT22;10189;49.546;7.906;2024-01-30T09:18:28;6.30;99.80
20057;DHT22;10189;49.546;7.906;2024-01-30T09:20:54;6.40;98.90
20057;DHT22;10189;49.546;7.906;2024-01-30T09:23:20;6.60;96.90
20057;DHT22;10189;49.546;7.906;2024-01-30T09:25:47;6.70;97.80
20057;DHT22;10189;49.546;7.906;2024-01-30T09:28:13;6.90;96.70
20057;DHT22;10189;49.546;7.906;2024-01-30T09:30:40;7.00;95.50
20057;DHT22;10189;49.546;7.906;2024-01-30T09:33:06;7.10;94.60
20057;DHT22;10189;49.546;7.906;2024-01-30T09:35:32;7.30;93.70
20057;DHT22;10189;49.546;7.906;2024-01-30T09:37:59;7.40;94.10
20057;DHT22;10189;49.546;7.906;2024-01-30T09:40:25;7.50;93.50
20057;DHT22;10189;49.546;7.906;2024-01-30T09:42:51;7.40;93.80
20057;DHT22;10189;49.546;7.906;2024-01-30T09:45:23;7.50;93.80
20057;DHT22;10189;49.546;7.906;2024-01-30T09:47:50;7.50;92.20
20057;DHT22;10189;49.546;7.906;2024-01-30T09:50:17;7.50;93.20
20057;DHT22;10189;49.546;7.906;2024-01-30T09:52:44;7.60;93.10
20057;DHT22;10189;49.546;7.906;2024-01-30T09:55:15;7.70;93.80
20057;DHT22;10189;49.546;7.906;2024-01-30T09:57:42;7.70;91.30
20057;DHT22;10189;49.546;7.906;2024-01-30T10:00:08;7.70;90.90
20057;DHT22;10189;49.546;7.906;2024-01-30T10:02:39;7.90;91.00
20057;DHT22;10189;49.546;7.906;2024-01-30T10:05:07;8.00;92.00
20057;DHT22;10189;49.546;7.906;2024-01-30T10:07:34;8.10;92.30
20057;DHT22;10189;49.546;7.906;2024-01-30T10:10:00;8.30;91.70
20057;DHT22;10189;49.546;7.906;2024-01-30T10:12:26;8.40;92.10
20057;DHT22;10189;49.546;7.906;2024-01-30T10:14:56;8.60;89.60
20057;DHT22;10189;49.546;7.906;2024-01-30T10:17:25;8.70;88.70
20057;DHT22;10189;49.546;7.906;2024-01-30T10:19:52;8.90;88.10
20057;DHT22;10189;49.546;7.906;2024-01-30T10:22:18;9.00;86.20
20057;DHT22;10189;49.546;7.906;2024-01-30T10:24:45;8.90;86.50
20057;DHT22;10189;49.546;7.906;2024-01-30T10:27:11;8.90;86.80
20057;DHT22;10189;49.546;7.906;2024-01-30T10:29:37;8.80;86.90
20057;DHT22;10189;49.546;7.906;2024-01-30T10:32:04;8.80;87.70
20057;DHT22;10189;49.546;7.906;2024-01-30T10:34:32;8.80;87.40
20057;DHT22;10189;49.546;7.906;2024-01-30T10:37:09;8.70;86.90
20057;DHT22;10189;49.546;7.906;2024-01-30T10:39:41;8.60;87.80
20057;DHT22;10189;49.546;7.906;2024-01-30T10:42:12;8.60;87.80
20057;DHT22;10189;49.546;7.906;2024-01-30T10:45:02;8.70;87.20
20057;DHT22;10189;49.546;7.906;2024-01-30T10:47:48;8.80;86.90
20057;DHT22;10189;49.546;7.906;2024-01-30T10:50:15;8.90;86.90
20057;DHT22;10189;49.546;7.906;2024-01-30T10:52:42;8.90;87.20
20057;DHT22;10189;49.546;7.906;2024-01-30T10:55:10;8.80;87.80
20057;DHT22;10189;49.546;7.906;2024-01-30T10:57:36;8.80;87.00
20057;DHT22;10189;49.546;7.906;2024-01-30T11:00:13;8.70;86.70
20057;DHT22;10189;49.546;7.906;2024-01-30T11:02:45;8.80;86.80
20057;DHT22;10189;49.546;7.906;2024-01-30T11:05:12;8.70;87.20
20057;DHT22;10189;49.546;7.906;2024-01-30T11:07:41;8.70;87.40
20057;DHT22;10189;49.546;7.906;2024-01-30T11:10:07;8.70;87.00
20057;DHT22;10189;49.546;7.906;2024-01-30T11:12:39;8.70;87.30
20057;DHT22;10189;49.546;7.906;2024-01-30T11:15:13;8.80;88.10
20057;DHT22;10189;49.546;7.906;2024-01-30T11:20:26;8.80;88.10
20057;DHT22;10189;49.546;7.906;2024-01-30T11:22:57;8.80;89.10
20057;DHT22;10189;49.546;7.906;2024-01-30T11:25:24;8.80;88.10
20057;DHT22;10189;49.546;7.906;2024-01-30T11:27:52;8.90;88.10
20057;DHT22;10189;49.546;7.906;2024-01-30T11:30:30;8.80;88.90
20057;DHT22;10189;49.546;7.906;2024-01-30T11:35:34;8.80;88.80
20057;DHT22;10189;49.546;7.906;2024-01-30T11:38:02;8.80;88.90
20057;DHT22;10189;49.546;7.906;2024-01-30T11:40:30;8.90;88.50
20057;DHT22;10189;49.546;7.906;2024-01-30T11:42:58;8.90;89.40
20057;DHT22;10189;49.546;7.906;2024-01-30T11:45:27;9.10;88.40
20057;DHT22;10189;49.546;7.906;2024-01-30T11:47:54;9.20;87.50
20057;DHT22;10189;49.546;7.906;2024-01-30T11:50:20;9.30;86.70
20057;DHT22;10189;49.546;7.906;2024-01-30T11:52:47;9.40;86.10
20057;DHT22;10189;49.546;7.906;2024-01-30T11:55:14;9.40;85.90
20057;DHT22;10189;49.546;7.906;2024-01-30T11:57:40;9.30;86.80
20057;DHT22;10189;49.546;7.906;2024-01-30T12:00:14;9.30;86.80
20057;DHT22;10189;49.546;7.906;2024-01-30T12:02:42;9.40;86.10
20057;DHT22;10189;49.546;7.906;2024-01-30T12:05:08;9.40;85.90
20057;DHT22;10189;49.546;7.906;2024-01-30T12:07:35;9.40;86.10
20057;DHT22;10189;49.546;7.906;2024-01-30T12:10:02;9.50;87.20
20057;DHT22;10189;49.546;7.906;2024-01-30T12:12:28;9.50;86.70
20057;DHT22;10189;49.546;7.906;2024-01-30T12:14:56;9.50;86.60
20057;DHT22;10189;49.546;7.906;2024-01-30T12:17:33;9.60;86.70
20057;DHT22;10189;49.546;7.906;2024-01-30T12:20:12;9.70;85.70
20057;DHT22;10189;49.546;7.906;2024-01-30T12:22:42;9.70;86.90
20057;DHT22;10189;49.546;7.906;2024-01-30T12:25:09;9.80;86.20
20057;DHT22;10189;49.546;7.906;2024-01-30T12:27:37;9.90;87.20
20057;DHT22;10189;49.546;7.906;2024-01-30T12:30:11;9.80;85.60
20057;DHT22;10189;49.546;7.906;2024-01-30T12:32:43;9.70;86.80
20057;DHT22;10189;49.546;7.906;2024-01-30T12:35:11;9.70;86.90
20057;DHT22;10189;49.546;7.906;2024-01-30T12:37:38;9.70;87.10
20057;DHT22;10189;49.546;7.906;2024-01-30T12:40:05;9.80;86.90
20057;DHT22;10189;49.546;7.906;2024-01-30T12:42:35;9.80;86.80
20057;DHT22;10189;49.546;7.906;2024-01-30T12:45:05;9.80;87.20
20057;DHT22;10189;49.546;7.906;2024-01-30T12:47:41;9.80;86.60
20057;DHT22;10189;49.546;7.906;2024-01-30T12:50:07;9.70;87.70
20057;DHT22;10189;49.546;7.906;2024-01-30T12:52:35;9.70;89.20
20057;DHT22;10189;49.546;7.906;2024-01-30T12:55:01;9.60;87.90
20057;DHT22;10189;49.546;7.906;2024-01-30T12:57:29;9.70;88.50
20057;DHT22;10189;49.546;7.906;2024-01-30T12:59:55;9.70;87.80
20057;DHT22;10189;49.546;7.906;2024-01-30T13:02:21;9.70;89.10
20057;DHT22;10189;49.546;7.906;2024-01-30T13:04:48;9.70;89.20
20057;DHT22;10189;49.546;7.906;2024-01-30T13:07:14;9.80;88.30
20057;DHT22;10189;49.546;7.906;2024-01-30T13:09:39;9.80;88.80
20057;DHT22;10189;49.546;7.906;2024-01-30T13:12:05;9.90;88.50
20057;DHT22;10189;49.546;7.906;2024-01-30T13:14:32;9.90;88.70
20057;DHT22;10189;49.546;7.906;2024-01-30T13:16:58;10.00;88.40
20057;DHT22;10189;49.546;7.906;2024-01-30T13:19:24;10.10;89.00
20057;DHT22;10189;49.546;7.906;2024-01-30T13:21:50;10.10;88.90
20057;DHT22;10189;49.546;7.906;2024-01-30T13:24:16;10.10;89.10
20057;DHT22;10189;49.546;7.906;2024-01-30T13:26:42;10.10;88.70
20057;DHT22;10189;49.546;7.906;2024-01-30T13:29:09;10.20;88.80
20057;DHT22;10189;49.546;7.906;2024-01-30T13:31:35;10.20;88.60
20057;DHT22;10189;49.546;7.906;2024-01-30T13:34:01;10.30;88.60
20057;DHT22;10189;49.546;7.906;2024-01-30T13:36:27;10.30;88.70
20057;DHT22;10189;49.546;7.906;2024-01-30T13:38:53;10.30;89.10
20057;DHT22;10189;49.546;7.906;2024-01-30T13:41:19;10.20;89.30
20057;DHT22;10189;49.546;7.906;2024-01-30T13:43:46;10.30;89.70
20057;DHT22;10189;49.546;7.906;2024-01-30T13:46:12;10.20;90.20
20057;DHT22;10189;49.546;7.906;2024-01-30T13:48:38;10.20;91.00
20057;DHT22;10189;49.546;7.906;2024-01-30T13:51:04;10.20;89.90
20057;DHT22;10189;49.546;7.906;2024-01-30T13:53:30;10.30;90.40
20057;DHT22;10189;49.546;7.906;2024-01-30T13:55:56;10.40;89.80
20057;DHT22;10189;49.546;7.906;2024-01-30T13:58:22;10.30;89.90
20057;DHT22;10189;49.546;7.906;2024-01-30T14:00:48;10.40;90.20
20057;DHT22;10189;49.546;7.906;2024-01-30T14:03:14;10.40;89.90
20057;DHT22;10189;49.546;7.906;2024-01-30T14:05:40;10.30;90.10
20057;DHT22;10189;49.546;7.906;2024-01-30T14:08:06;10.30;90.60
20057;DHT22;10189;49.546;7.906;2024-01-30T14:10:34;10.30;90.40
20057;DHT22;10189;49.546;7.906;2024-01-30T14:13:00;10.30;90.70
20057;DHT22;10189;49.546;7.906;2024-01-30T14:15:26;10.30;90.60
20057;DHT22;10189;49.546;7.906;2024-01-30T14:17:52;10.20;91.20
20057;DHT22;10189;49.546;7.906;2024-01-30T14:20:18;10.20;90.90
20057;DHT22;10189;49.546;7.906;2024-01-30T14:22:44;10.20;91.30
20057;DHT22;10189;49.546;7.906;2024-01-30T14:25:10;10.20;91.60
20057;DHT22;10189;49.546;7.906;2024-01-30T14:27:36;10.20;91.10
20057;DHT22;10189;49.546;7.906;2024-01-30T14:30:02;10.20;91.30
20057;DHT22;10189;49.546;7.906;2024-01-30T14:32:28;10.10;91.40
20057;DHT22;10189;49.546;7.906;2024-01-30T14:34:54;10.00;92.40
20057;DHT22;10189;49.546;7.906;2024-01-30T14:37:21;9.90;92.80
20057;DHT22;10189;49.546;7.906;2024-01-30T14:39:48;9.90;93.30
20057;DHT22;10189;49.546;7.906;2024-01-30T14:42:14;9.90;93.20
20057;DHT22;10189;49.546;7.906;2024-01-30T14:44:41;9.80;93.10
20057;DHT22;10189;49.546;7.906;2024-01-30T14:47:07;9.80;93.40
20057;DHT22;10189;49.546;7.906;2024-01-30T14:49:34;9.70;94.00
20057;DHT22;10189;49.546;7.906;2024-01-30T14:52:00;9.70;94.10
20057;DHT22;10189;49.546;7.906;2024-01-30T14:54:30;9.60;94.70
20057;DHT22;10189;49.546;7.906;2024-01-30T14:56:55;9.50;95.00
20057;DHT22;10189;49.546;7.906;2024-01-30T14:59:22;9.50;95.20
20057;DHT22;10189;49.546;7.906;2024-01-30T15:01:48;9.50;96.00
20057;DHT22;10189;49.546;7.906;2024-01-30T15:04:14;9.40;96.60
20057;DHT22;10189;49.546;7.906;2024-01-30T15:06:40;9.40;96.80
20057;DHT22;10189;49.546;7.906;2024-01-30T15:09:14;9.40;96.70
20057;DHT22;10189;49.546;7.906;2024-01-30T15:11:41;9.30;97.10
20057;DHT22;10189;49.546;7.906;2024-01-30T15:14:07;9.30;97.50
20057;DHT22;10189;49.546;7.906;2024-01-30T15:16:33;9.30;97.30
20057;DHT22;10189;49.546;7.906;2024-01-30T15:18:59;9.20;97.60
20057;DHT22;10189;49.546;7.906;2024-01-30T15:21:25;9.20;97.60
20057;DHT22;10189;49.546;7.906;2024-01-30T15:23:51;9.20;97.80
20057;DHT22;10189;49.546;7.906;2024-01-30T15:26:17;9.10;98.10
20057;DHT22;10189;49.546;7.906;2024-01-30T15:28:43;9.10;98.50
20057;DHT22;10189;49.546;7.906;2024-01-30T15:31:09;9.00;98.60
20057;DHT22;10189;49.546;7.906;2024-01-30T15:33:35;9.00;98.90
20057;DHT22;10189;49.546;7.906;2024-01-30T15:36:02;9.00;99.20
20057;DHT22;10189;49.546;7.906;2024-01-30T15:38:29;9.00;99.50
20057;DHT22;10189;49.546;7.906;2024-01-30T15:40:55;9.00;99.40
20057;DHT22;10189;49.546;7.906;2024-01-30T15:43:22;9.00;99.70
20057;DHT22;10189;49.546;7.906;2024-01-30T15:45:49;8.90;99.90
20057;DHT22;10189;49.546;7.906;2024-01-30T15:48:17;8.90;99.90